Time;durP1;ratioP1;P1;durP2;ratioP2;P2;SDS_P1;SDS_P2;PMS_P1;PMS_P2;Temp;Humidity;BMP_temperature;BMP_pressure;BME280_temperature;BME280_humidity;BME280_pressure;Samples;Min_cycle;Max_cycle;Signal;HPM_P1;HPM_P2
2023/01/20 00:01:56;;;;;;;12.70;11.60;;;1.70;50.00;;;;;;20281;6920;334470;-76
2023/01/20 00:04:22;;;;;;;13.32;12.13;;;1.80;50.10;;;;;;20275;6920;340079;-76
2023/01/20 00:06:48;;;;;;;11.97;10.67;;;2.10;49.40;;;;;;20472;6920;121962;-75
2023/01/20 00:09:15;;;;;;;11.43;10.07;;;2.10;49.40;;;;;;20485;6920;118788;-75
2023/01/20 00:11:41;;;;;;;13.82;12.52;;;2.00;49.90;;;;;;20285;6920;280984;-76
2023/01/20 00:14:06;;;;;;;13.33;11.77;;;2.10;50.80;;;;;;20493;6920;117719;-76
2023/01/20 00:16:33;;;;;;;12.10;10.90;;;2.00;50.50;;;;;;20469;6920;119038;-76
2023/01/20 00:18:58;;;;;;;14.57;13.17;;;2.00;50.50;;;;;;20286;6920;311026;-77
2023/01/20 00:21:24;;;;;;;12.10;10.80;;;2.20;51.00;;;;;;20493;6920;118305;-76
2023/01/20 00:23:49;;;;;;;13.50;12.20;;;2.20;50.80;;;;;;20288;6920;281043;-76
2023/01/20 00:26:19;;;;;;;12.13;11.00;;;2.40;51.10;;;;;;20496;6920;117838;-76
2023/01/20 00:28:44;;;;;;;11.97;10.87;;;2.40;51.10;;;;;;20473;6920;129127;-77
2023/01/20 00:31:19;;;;;;;11.93;10.83;;;2.30;51.30;;;;;;20488;6920;118325;-77
2023/01/20 00:33:45;;;;;;;15.23;13.73;;;2.20;51.60;;;;;;20280;6920;300764;-77
2023/01/20 00:36:10;;;;;;;16.10;12.47;;;2.30;51.50;;;;;;20486;6920;118001;-77
2023/01/20 00:38:36;;;;;;;12.90;11.43;;;2.40;51.30;;;;;;20468;6920;121588;-77
2023/01/20 00:41:02;;;;;;;14.23;10.23;;;2.20;51.30;;;;;;20490;6920;119932;-76
2023/01/20 00:43:29;;;;;;;12.20;11.20;;;2.10;51.50;;;;;;20283;6920;283281;-77
2023/01/20 00:45:54;;;;;;;12.23;11.23;;;2.30;51.70;;;;;;20279;6920;340858;-77
2023/01/20 00:48:20;;;;;;;11.97;10.60;;;2.60;51.20;;;;;;20493;6920;119348;-77
2023/01/20 00:50:45;;;;;;;13.15;11.95;;;2.70;51.00;;;;;;20267;6920;310703;-77
2023/01/20 00:53:11;;;;;;;15.25;13.65;;;2.80;50.70;;;;;;20278;6920;344891;-76
2023/01/20 00:55:36;;;;;;;11.60;10.53;;;3.00;50.10;;;;;;20423;6918;118417;-76
2023/01/20 00:58:03;;;;;;;10.57;9.68;;;2.70;50.40;;;;;;20490;6919;121493;-74
2023/01/20 01:00:28;;;;;;;10.60;9.50;;;2.70;50.40;;;;;;20439;6920;119739;-79
2023/01/20 01:02:54;;;;;;;12.48;11.48;;;2.50;50.90;;;;;;20266;6920;286546;-77
2023/01/20 01:05:20;;;;;;;12.98;11.82;;;2.80;50.60;;;;;;20296;6920;280096;-76
2023/01/20 01:07:48;;;;;;;12.20;10.63;;;2.80;50.60;;;;;;20495;6920;117790;-77
2023/01/20 01:10:14;;;;;;;14.07;12.88;;;2.80;50.40;;;;;;20286;6920;346754;-77
2023/01/20 01:12:39;;;;;;;12.70;11.37;;;2.80;50.30;;;;;;20470;6920;121565;-76
2023/01/20 01:15:05;;;;;;;12.03;10.93;;;2.80;50.30;;;;;;20494;6920;118568;-77
2023/01/20 01:17:31;;;;;;;14.75;13.45;;;2.60;50.60;;;;;;20277;6920;314680;-76
2023/01/20 01:19:56;;;;;;;13.13;11.80;;;2.60;50.30;;;;;;20491;6920;117926;-76
2023/01/20 01:22:22;;;;;;;11.70;10.60;;;2.60;50.30;;;;;;20492;6920;119853;-76
2023/01/20 01:24:48;;;;;;;13.07;11.30;;;2.30;51.00;;;;;;20473;6920;118260;-76
2023/01/20 01:27:14;;;;;;;12.63;11.43;;;2.30;51.00;;;;;;20493;6920;117768;-77
2023/01/20 01:29:39;;;;;;;16.07;14.63;;;2.10;51.20;;;;;;20278;6920;312123;-76
2023/01/20 01:32:05;;;;;;;14.27;12.73;;;2.30;51.10;;;;;;20489;6920;117713;-76
2023/01/20 01:34:31;;;;;;;15.33;14.00;;;2.30;50.80;;;;;;20259;6920;312175;-75
2023/01/20 01:36:56;;;;;;;12.67;11.23;;;2.40;50.70;;;;;;20488;6920;118327;-76
2023/01/20 01:39:22;;;;;;;14.82;13.52;;;2.50;50.80;;;;;;20261;6920;339965;-76
2023/01/20 01:41:47;;;;;;;14.65;13.38;;;2.60;50.60;;;;;;20281;6920;292720;-76
2023/01/20 01:44:13;;;;;;;12.50;11.20;;;2.90;49.90;;;;;;20494;6920;117840;-76
2023/01/20 01:46:39;;;;;;;14.50;13.13;;;2.90;49.90;;;;;;20254;6920;329749;-75
2023/01/20 01:49:15;;;;;;;14.37;13.00;;;2.90;49.90;;;;;;20269;6920;311004;-76
2023/01/20 01:51:54;;;;;;;15.00;13.60;;;3.30;48.40;;;;;;19871;6920;309777;-76
2023/01/20 01:54:21;;;;;;;12.20;11.10;;;3.10;48.50;;;;;;20439;6920;120015;-74
2023/01/20 01:56:46;;;;;;;12.37;11.23;;;3.10;48.50;;;;;;20476;6920;117925;-76
2023/01/20 01:59:12;;;;;;;12.20;10.90;;;2.80;49.80;;;;;;20484;6920;119482;-76
2023/01/20 02:01:37;;;;;;;14.63;13.27;;;2.60;49.80;;;;;;20282;6920;281417;-77
2023/01/20 02:04:09;;;;;;;11.97;10.87;;;2.60;50.10;;;;;;20484;6920;117826;-77
2023/01/20 02:06:35;;;;;;;14.27;13.10;;;2.60;50.00;;;;;;20254;6920;281085;-77
2023/01/20 02:09:01;;;;;;;14.17;12.77;;;2.70;49.80;;;;;;20264;6918;315645;-77
2023/01/20 02:11:30;;;;;;;12.23;11.03;;;2.90;49.20;;;;;;20481;6919;121472;-76
2023/01/20 02:13:55;;;;;;;14.00;12.70;;;2.90;49.00;;;;;;20251;6920;310667;-76
2023/01/20 02:16:24;;;;;;;14.10;12.80;;;2.90;49.00;;;;;;20282;6920;284891;-76
2023/01/20 02:18:53;;;;;;;12.10;11.00;;;3.10;48.50;;;;;;20454;6920;117867;-76
2023/01/20 02:21:38;;;;;;;12.07;10.87;;;3.00;48.60;;;;;;20470;6920;117937;-76
2023/01/20 02:24:26;;;;;;;14.10;12.90;;;2.70;49.70;;;;;;20280;6920;290146;-75
2023/01/20 02:27:08;;;;;;;13.65;12.45;;;2.70;49.10;;;;;;20264;6920;311595;-75
2023/01/20 02:29:47;;;;;;;13.60;12.50;;;2.90;49.00;;;;;;20268;6920;280535;-75
2023/01/20 02:32:29;;;;;;;13.43;12.23;;;3.20;48.90;;;;;;20277;6920;297200;-76
2023/01/20 02:35:00;;;;;;;13.13;11.98;;;3.30;48.30;;;;;;20290;6920;339622;-75
2023/01/20 02:37:24;;;;;;;11.33;10.43;;;3.40;48.00;;;;;;20456;6920;117935;-75
2023/01/20 02:39:56;;;;;;;12.40;11.40;;;3.20;48.20;;;;;;20254;6920;313345;-75
2023/01/20 02:42:24;;;;;;;12.90;11.80;;;3.10;48.50;;;;;;19668;6920;313304;-75
2023/01/20 02:44:56;;;;;;;13.97;12.77;;;3.20;48.50;;;;;;20206;6920;284284;-76
2023/01/20 02:47:35;;;;;;;13.35;12.32;;;3.30;48.10;;;;;;20207;6920;281339;-77
2023/01/20 02:50:01;;;;;;;13.30;12.17;;;3.40;47.70;;;;;;20254;6920;282639;-76
2023/01/20 02:52:33;;;;;;;13.07;11.90;;;3.40;47.50;;;;;;20184;6920;284893;-76
2023/01/20 02:54:58;;;;;;;13.60;12.30;;;3.40;47.70;;;;;;20233;6920;310005;-76
2023/01/20 02:57:25;;;;;;;12.48;10.85;;;3.20;47.90;;;;;;20458;6920;117707;-76
2023/01/20 02:59:50;;;;;;;10.90;9.90;;;3.20;47.90;;;;;;20462;6920;119467;-76
2023/01/20 03:02:19;;;;;;;14.03;11.57;;;2.80;48.50;;;;;;20464;6920;124404;-76
2023/01/20 03:04:44;;;;;;;13.03;10.87;;;2.40;49.10;;;;;;20433;6920;119533;-76
2023/01/20 03:07:11;;;;;;;11.65;10.45;;;1.90;50.20;;;;;;20446;6920;119546;-76
2023/01/20 03:09:36;;;;;;;11.07;10.07;;;1.90;50.20;;;;;;20465;6920;119856;-76
2023/01/20 03:12:03;;;;;;;14.77;13.27;;;1.80;50.80;;;;;;20251;6920;314466;-76
2023/01/20 03:14:28;;;;;;;12.80;11.53;;;1.80;50.80;;;;;;20478;6920;118250;-76
2023/01/20 03:16:54;;;;;;;14.75;13.40;;;1.90;50.70;;;;;;20215;6935;310585;-76
2023/01/20 03:19:19;;;;;;;14.33;13.13;;;2.00;50.80;;;;;;20262;6919;315539;-75
2023/01/20 03:21:45;;;;;;;12.15;11.12;;;2.20;50.40;;;;;;20434;6931;120149;-75
2023/01/20 03:24:12;;;;;;;10.73;9.70;;;2.20;50.30;;;;;;20426;6935;120920;-76
2023/01/20 03:26:37;;;;;;;13.50;12.30;;;2.00;50.70;;;;;;20201;6932;309824;-75
2023/01/20 03:29:03;;;;;;;14.10;12.80;;;2.00;51.10;;;;;;20229;6932;309417;-76
2023/01/20 03:31:28;;;;;;;12.33;11.17;;;2.30;50.90;;;;;;20486;6920;117993;-75
2023/01/20 03:33:54;;;;;;;13.07;11.98;;;2.20;50.70;;;;;;20227;6932;311076;-75
2023/01/20 03:36:20;;;;;;;12.00;10.90;;;2.20;50.90;;;;;;20449;6932;118098;-76
2023/01/20 03:38:46;;;;;;;10.60;9.53;;;2.20;50.90;;;;;;20434;6932;118181;-76
2023/01/20 03:41:31;;;;;;;13.25;12.15;;;2.10;51.40;;;;;;20239;6932;286888;-76
2023/01/20 03:44:16;;;;;;;10.97;10.07;;;2.20;51.70;;;;;;19870;6932;120309;-76
2023/01/20 03:46:52;;;;;;;11.33;10.07;;;2.20;51.50;;;;;;20414;6935;120095;-77
2023/01/20 03:49:18;;;;;;;11.83;10.53;;;1.80;52.00;;;;;;20436;6935;120822;-77
2023/01/20 03:51:53;;;;;;;11.40;10.30;;;1.80;51.90;;;;;;20419;6935;118313;-76
2023/01/20 03:54:18;;;;;;;14.37;13.07;;;1.70;52.20;;;;;;20225;6932;280938;-76
2023/01/20 03:57:02;;;;;;;14.50;13.20;;;1.90;52.20;;;;;;20191;6932;339968;-77
2023/01/20 03:59:25;;;;;;;12.43;11.13;;;2.20;51.50;;;;;;20406;6935;123932;-76
2023/01/20 04:01:51;;;;;;;12.27;10.43;;;2.10;51.40;;;;;;20449;6932;119116;-76
2023/01/20 04:04:16;;;;;;;15.67;14.23;;;2.00;51.70;;;;;;20250;6931;284957;-76
2023/01/20 04:06:42;;;;;;;13.15;11.77;;;2.00;51.80;;;;;;20442;6931;119354;-75
2023/01/20 04:09:07;;;;;;;12.50;11.30;;;2.00;51.80;;;;;;20458;6931;118061;-76
2023/01/20 04:11:33;;;;;;;11.63;10.48;;;1.80;51.90;;;;;;20460;6931;119309;-76
2023/01/20 04:13:59;;;;;;;11.13;10.13;;;1.70;52.40;;;;;;20490;6923;117810;-76
2023/01/20 04:16:24;;;;;;;14.70;13.40;;;1.50;52.60;;;;;;20282;6923;285484;-76
2023/01/20 04:18:50;;;;;;;15.17;13.87;;;1.70;52.80;;;;;;20246;6923;327565;-76
2023/01/20 04:21:15;;;;;;;14.83;13.57;;;2.00;52.30;;;;;;20266;6923;281797;-74
2023/01/20 04:23:41;;;;;;;12.87;11.67;;;2.30;51.70;;;;;;20407;6923;117990;-77
2023/01/20 04:26:07;;;;;;;11.27;10.30;;;2.00;51.80;;;;;;20423;6940;117814;-74
2023/01/20 04:28:33;;;;;;;14.60;13.30;;;2.00;51.80;;;;;;20226;6931;316254;-78
2023/01/20 04:30:59;;;;;;;14.52;13.38;;;2.30;51.70;;;;;;20262;6929;288074;-79
2023/01/20 04:33:25;;;;;;;10.93;10.00;;;2.30;51.60;;;;;;20493;6923;117700;-79
2023/01/20 04:35:50;;;;;;;14.93;13.65;;;2.30;51.60;;;;;;20285;6923;296994;-79
2023/01/20 04:38:16;;;;;;;11.60;10.40;;;2.30;51.70;;;;;;20460;6934;117904;-82
2023/01/20 04:40:41;;;;;;;11.27;10.13;;;2.20;52.10;;;;;;20449;6932;119253;-78
2023/01/20 04:43:08;;;;;;;13.70;12.48;;;2.00;52.00;;;;;;20262;6931;280540;-78
2023/01/20 04:45:32;;;;;;;11.18;10.27;;;2.10;52.40;;;;;;20472;6931;118846;-81
2023/01/20 04:47:58;;;;;;;11.57;10.47;;;2.10;53.00;;;;;;20481;6931;121969;-78
2023/01/20 04:50:24;;;;;;;10.20;9.20;;;1.80;52.90;;;;;;20480;6923;120085;-76
2023/01/20 04:52:50;;;;;;;10.77;9.77;;;1.80;52.90;;;;;;20434;6935;119127;-74
2023/01/20 04:55:15;;;;;;;10.15;9.15;;;1.70;53.20;;;;;;20449;6932;118124;-74
2023/01/20 04:57:41;;;;;;;10.30;9.30;;;1.60;53.40;;;;;;20470;6932;117668;-74
2023/01/20 05:00:08;;;;;;;11.30;10.13;;;1.40;53.80;;;;;;20494;6920;119479;-74
2023/01/20 05:02:33;;;;;;;10.93;10.03;;;1.40;53.70;;;;;;20432;6920;150479;-76
2023/01/20 05:04:59;;;;;;;16.00;14.50;;;1.30;53.80;;;;;;20272;6920;311425;-77
2023/01/20 05:07:24;;;;;;;13.37;11.97;;;1.50;53.80;;;;;;20496;6920;121633;-78
2023/01/20 05:09:50;;;;;;;15.83;14.43;;;1.60;53.40;;;;;;20267;6920;340208;-77
2023/01/20 05:12:16;;;;;;;13.65;12.20;;;1.80;53.30;;;;;;20479;6920;122789;-78
2023/01/20 05:14:41;;;;;;;12.52;11.23;;;1.80;53.00;;;;;;20485;6920;142095;-78
2023/01/20 05:17:07;;;;;;;11.50;10.30;;;1.50;53.50;;;;;;20494;6920;121463;-80
2023/01/20 05:19:33;;;;;;;15.33;14.10;;;1.40;53.40;;;;;;20277;6920;311182;-81
2023/01/20 05:21:59;;;;;;;12.80;11.70;;;1.60;53.60;;;;;;20489;6920;117892;-76
2023/01/20 05:24:24;;;;;;;16.10;14.60;;;1.60;53.40;;;;;;20281;6920;296694;-77
2023/01/20 05:26:50;;;;;;;13.83;12.27;;;1.80;53.50;;;;;;20470;6920;117891;-77
2023/01/20 05:29:15;;;;;;;16.33;14.87;;;1.80;53.90;;;;;;20283;6920;285868;-77
2023/01/20 05:31:42;;;;;;;16.30;14.90;;;1.90;53.20;;;;;;20276;6920;310233;-78
2023/01/20 05:34:07;;;;;;;17.37;15.77;;;2.20;52.80;;;;;;20286;6920;298576;-79
2023/01/20 05:36:32;;;;;;;15.60;14.25;;;2.40;52.20;;;;;;20272;6920;280600;-74
2023/01/20 05:38:58;;;;;;;16.48;14.98;;;2.60;51.80;;;;;;20282;6920;317659;-76
2023/01/20 05:41:24;;;;;;;13.80;12.30;;;2.60;51.50;;;;;;20494;6920;118235;-74
2023/01/20 05:43:50;;;;;;;13.37;12.07;;;2.50;51.40;;;;;;20499;6918;117735;-75
2023/01/20 05:46:15;;;;;;;16.87;15.37;;;2.20;51.90;;;;;;20272;6920;310190;-76
2023/01/20 05:48:41;;;;;;;16.67;15.10;;;2.20;52.20;;;;;;20262;6920;310626;-78
2023/01/20 05:51:07;;;;;;;16.77;15.27;;;2.40;51.80;;;;;;20290;6920;281237;-77
2023/01/20 05:53:32;;;;;;;13.53;12.13;;;2.60;51.50;;;;;;20492;6920;117937;-79
2023/01/20 05:56:02;;;;;;;15.88;14.45;;;2.40;51.30;;;;;;20274;6920;339832;-77
2023/01/20 05:58:27;;;;;;;14.87;12.13;;;2.40;51.70;;;;;;20490;6920;118367;-76
2023/01/20 06:00:53;;;;;;;12.37;11.27;;;2.30;51.70;;;;;;20423;6935;128989;-78
2023/01/20 06:03:20;;;;;;;13.03;10.67;;;2.00;52.40;;;;;;20451;6920;117980;-77
2023/01/20 06:05:48;;;;;;;15.97;14.57;;;1.80;52.70;;;;;;20251;6932;315009;-76
2023/01/20 06:08:14;;;;;;;13.03;11.90;;;1.90;53.30;;;;;;20458;6932;118099;-82
2023/01/20 06:10:39;;;;;;;12.63;11.30;;;1.90;53.00;;;;;;20424;6935;119484;-80
2023/01/20 06:13:05;;;;;;;16.67;15.10;;;1.70;53.10;;;;;;20256;6932;302470;-80
2023/01/20 06:15:30;;;;;;;13.77;12.57;;;1.80;53.30;;;;;;20485;6935;118970;-76
2023/01/20 06:17:56;;;;;;;15.40;14.00;;;1.80;53.10;;;;;;20239;6932;339971;-79
2023/01/20 06:20:23;;;;;;;13.82;12.43;;;2.00;53.10;;;;;;20400;6935;117937;-78
2023/01/20 06:22:49;;;;;;;12.33;11.13;;;2.00;53.10;;;;;;20383;6932;123032;-78
2023/01/20 06:25:14;;;;;;;12.27;11.17;;;1.80;53.20;;;;;;20403;6932;117838;-77
2023/01/20 06:27:41;;;;;;;11.80;10.70;;;1.50;53.80;;;;;;20450;6920;117776;-78
2023/01/20 06:30:09;;;;;;;11.87;10.67;;;1.50;53.80;;;;;;20414;6932;119428;-78
2023/01/20 06:32:36;;;;;;;11.47;10.37;;;1.40;54.10;;;;;;20407;6935;120020;-78
2023/01/20 06:35:02;;;;;;;11.70;10.67;;;1.30;54.30;;;;;;20448;6932;119243;-78
2023/01/20 06:37:27;;;;;;;12.52;10.98;;;1.20;54.50;;;;;;20453;6935;117871;-78
2023/01/20 06:39:54;;;;;;;12.23;11.03;;;1.00;54.90;;;;;;20447;6935;117801;-79
2023/01/20 06:42:19;;;;;;;17.13;15.33;;;1.00;54.90;;;;;;20253;6932;280915;-77
2023/01/20 06:44:45;;;;;;;16.80;15.10;;;1.30;54.90;;;;;;20227;6932;340036;-77
2023/01/20 06:47:10;;;;;;;13.00;11.80;;;1.70;54.40;;;;;;20466;6931;118142;-78
2023/01/20 06:49:36;;;;;;;10.63;9.67;;;1.80;54.00;;;;;;20456;6935;120362;-78
2023/01/20 06:52:02;;;;;;;13.40;10.63;;;1.70;54.40;;;;;;20449;6932;117755;-79
2023/01/20 06:54:27;;;;;;;15.10;13.70;;;1.60;54.70;;;;;;20250;6930;339968;-78
2023/01/20 06:56:53;;;;;;;14.40;13.13;;;1.80;54.90;;;;;;20228;6931;286305;-78
2023/01/20 06:59:18;;;;;;;15.50;14.10;;;2.20;54.10;;;;;;20291;6920;340846;-78
2023/01/20 07:01:45;;;;;;;16.40;14.90;;;2.50;52.80;;;;;;20273;6932;311854;-81
2023/01/20 07:04:11;;;;;;;12.57;11.57;;;2.80;51.80;;;;;;20497;6920;118489;-81
2023/01/20 07:06:40;;;;;;;12.23;11.12;;;2.60;51.60;;;;;;20436;6932;120593;-81
2023/01/20 07:09:05;;;;;;;11.50;10.30;;;2.30;51.90;;;;;;20453;6932;119480;-81
2023/01/20 07:11:33;;;;;;;11.20;10.03;;;2.10;52.50;;;;;;20435;6935;119868;-80
2023/01/20 07:13:58;;;;;;;16.10;14.53;;;1.80;53.00;;;;;;20244;6932;330185;-79
2023/01/20 07:16:23;;;;;;;16.42;14.90;;;1.90;53.80;;;;;;20285;6920;314754;-81
2023/01/20 07:18:50;;;;;;;16.00;14.60;;;2.20;52.70;;;;;;20236;6932;281464;-78
2023/01/20 07:21:15;;;;;;;16.30;14.80;;;2.50;52.20;;;;;;20249;6932;311507;-85
2023/01/20 07:23:41;;;;;;;13.77;12.43;;;2.70;51.70;;;;;;20450;6935;119084;-78
2023/01/20 07:26:07;;;;;;;12.50;11.00;;;2.60;51.70;;;;;;20471;6932;117211;-78
2023/01/20 07:28:32;;;;;;;15.07;13.77;;;2.30;52.10;;;;;;20224;6932;310581;-77
2023/01/20 07:31:02;;;;;;;15.60;14.02;;;2.50;52.00;;;;;;20240;6932;310674;-77
2023/01/20 07:33:28;;;;;;;14.95;13.43;;;2.70;51.00;;;;;;20263;6920;310697;-77
2023/01/20 07:35:54;;;;;;;12.33;10.77;;;2.70;51.50;;;;;;20456;6932;119299;-77
2023/01/20 07:38:19;;;;;;;14.80;13.45;;;2.60;51.40;;;;;;20246;6932;310187;-77
2023/01/20 07:40:45;;;;;;;12.25;11.18;;;2.60;51.50;;;;;;20433;6935;120253;-77
2023/01/20 07:43:10;;;;;;;13.73;12.53;;;2.50;51.60;;;;;;20237;6935;342092;-77
2023/01/20 07:45:36;;;;;;;14.90;13.55;;;2.50;51.70;;;;;;20240;6932;280617;-77
2023/01/20 07:48:02;;;;;;;13.73;12.43;;;2.70;51.30;;;;;;20450;6935;119140;-77
2023/01/20 07:50:28;;;;;;;15.75;14.35;;;2.50;51.60;;;;;;20234;6935;293136;-76
2023/01/20 07:52:53;;;;;;;13.20;11.77;;;2.50;51.50;;;;;;20460;6932;118036;-77
2023/01/20 07:55:19;;;;;;;16.20;14.77;;;2.50;51.60;;;;;;20278;6920;281004;-77
2023/01/20 07:57:45;;;;;;;15.15;13.70;;;2.50;51.90;;;;;;20461;6932;119377;-77
2023/01/20 08:00:10;;;;;;;12.97;11.77;;;2.40;51.90;;;;;;20454;6935;118985;-77
2023/01/20 08:02:36;;;;;;;13.93;12.53;;;2.20;52.30;;;;;;20427;6935;118985;-77
2023/01/20 08:05:03;;;;;;;14.63;12.57;;;1.90;53.10;;;;;;20428;6933;118428;-76
2023/01/20 08:07:28;;;;;;;17.98;16.23;;;1.90;53.10;;;;;;20236;6934;281437;-77
2023/01/20 08:09:54;;;;;;;20.27;18.05;;;2.10;53.10;;;;;;20462;6931;121412;-77
2023/01/20 08:12:20;;;;;;;22.60;19.40;;;2.10;53.00;;;;;;20446;6934;118627;-77
2023/01/20 08:14:46;;;;;;;18.45;16.80;;;2.00;53.30;;;;;;20229;6932;311153;-77
2023/01/20 08:17:11;;;;;;;17.87;16.27;;;2.10;53.40;;;;;;20245;6935;310696;-77
2023/01/20 08:19:37;;;;;;;15.23;13.67;;;2.50;52.70;;;;;;20464;6932;121058;-77
2023/01/20 08:22:03;;;;;;;17.33;15.80;;;2.50;52.70;;;;;;20246;6935;295178;-76
2023/01/20 08:24:29;;;;;;;16.12;14.40;;;2.60;52.70;;;;;;20470;6932;117171;-78
2023/01/20 08:26:54;;;;;;;20.10;18.20;;;2.60;52.60;;;;;;20241;6932;320449;-77
2023/01/20 08:29:21;;;;;;;17.63;15.83;;;2.60;52.60;;;;;;20462;6932;118112;-76
2023/01/20 08:31:46;;;;;;;17.93;16.30;;;2.60;52.60;;;;;;20237;6935;311676;-77
2023/01/20 08:34:12;;;;;;;15.57;13.87;;;2.70;52.80;;;;;;20450;6935;117844;-76
2023/01/20 08:36:37;;;;;;;27.30;24.43;;;2.70;52.80;;;;;;20445;6932;118286;-76
2023/01/20 08:39:03;;;;;;;30.17;27.02;;;2.50;52.70;;;;;;20237;6932;309766;-75
2023/01/20 08:41:28;;;;;;;45.15;40.28;;;2.60;53.20;;;;;;20245;6932;321460;-76
2023/01/20 08:43:54;;;;;;;29.45;26.33;;;2.90;52.50;;;;;;20259;6920;339891;-76
2023/01/20 08:46:20;;;;;;;14.20;12.90;;;3.10;51.90;;;;;;20467;6932;118473;-76
2023/01/20 08:48:46;;;;;;;13.73;12.43;;;3.10;51.90;;;;;;20444;6932;119988;-75
2023/01/20 08:51:15;;;;;;;18.53;16.73;;;2.90;52.40;;;;;;20233;6932;285516;-76
2023/01/20 08:53:41;;;;;;;24.33;21.90;;;2.90;52.40;;;;;;20263;6920;291169;-75
2023/01/20 08:56:06;;;;;;;16.12;14.63;;;3.20;51.70;;;;;;20448;6932;117840;-76
2023/01/20 08:58:32;;;;;;;14.67;12.57;;;3.20;51.70;;;;;;20433;6932;146846;-75
2023/01/20 09:00:58;;;;;;;32.50;29.50;;;3.00;52.10;;;;;;20238;6932;291648;-75
2023/01/20 09:03:24;;;;;;;14.85;13.48;;;3.00;52.10;;;;;;20459;6932;121044;-75
2023/01/20 09:05:51;;;;;;;18.48;16.77;;;3.20;51.90;;;;;;20281;6920;344360;-75
2023/01/20 09:08:16;;;;;;;19.53;17.77;;;3.10;51.90;;;;;;20253;6932;314921;-76
2023/01/20 09:10:42;;;;;;;20.50;18.70;;;3.40;51.20;;;;;;20261;6920;310699;-76
2023/01/20 09:13:07;;;;;;;16.45;14.95;;;3.70;50.60;;;;;;20261;6932;279711;-76
2023/01/20 09:15:34;;;;;;;16.63;14.93;;;4.00;49.80;;;;;;20263;6932;313131;-76
2023/01/20 09:18:01;;;;;;;16.40;14.80;;;4.00;49.80;;;;;;20464;6933;117726;-76
2023/01/20 09:20:27;;;;;;;16.30;14.80;;;3.80;49.90;;;;;;20265;6931;292598;-76
2023/01/20 09:22:53;;;;;;;14.23;13.03;;;3.80;50.10;;;;;;20462;6931;119338;-76
2023/01/20 09:25:19;;;;;;;16.37;14.90;;;3.60;50.40;;;;;;20300;6932;309840;-76
2023/01/20 09:27:44;;;;;;;13.82;12.60;;;3.70;50.60;;;;;;20528;6932;119044;-75
2023/01/20 09:30:10;;;;;;;12.73;11.57;;;3.70;50.80;;;;;;20507;6935;119015;-75
2023/01/20 09:32:36;;;;;;;12.00;11.00;;;3.50;51.20;;;;;;20435;6935;119016;-76
2023/01/20 09:35:01;;;;;;;19.77;16.50;;;3.40;51.70;;;;;;20480;6932;118160;-76
2023/01/20 09:46:15;;;;;;;15.83;14.53;;;3.50;52.10;;;;;;19474;6955;312926;-75
2023/01/20 09:54:41;;;;;;;14.40;13.10;;;4.10;50.50;;;;;;20098;6932;314411;-76
2023/01/20 09:57:07;;;;;;;12.00;11.00;;;4.20;49.90;;;;;;20433;6950;117993;-79
2023/01/20 09:59:39;;;;;;;14.65;13.30;;;4.30;50.30;;;;;;20266;6940;309658;-77
2023/01/20 10:02:04;;;;;;;14.67;13.40;;;4.40;50.00;;;;;;20269;6940;280038;-76
2023/01/20 10:04:31;;;;;;;13.15;11.85;;;4.70;49.70;;;;;;20433;6940;118267;-77
2023/01/20 10:07:12;;;;;;;13.95;12.75;;;4.80;49.80;;;;;;20238;6940;295147;-75
2023/01/20 10:09:37;;;;;;;12.67;11.57;;;4.80;49.40;;;;;;20390;6940;117738;-76
2023/01/20 10:12:09;;;;;;;11.73;10.73;;;4.80;50.20;;;;;;20393;6940;117827;-75
2023/01/20 10:14:36;;;;;;;14.40;13.10;;;5.00;49.80;;;;;;20171;6940;311247;-76
2023/01/20 10:17:15;;;;;;;14.83;13.63;;;5.30;48.70;;;;;;20182;6940;310799;-76
2023/01/20 10:19:57;;;;;;;13.80;12.60;;;5.30;48.70;;;;;;20185;6940;346606;-79
2023/01/20 10:22:33;;;;;;;13.70;12.13;;;5.80;47.70;;;;;;20387;6940;118054;-75
2023/01/20 10:25:05;;;;;;;14.03;12.90;;;5.90;47.90;;;;;;20188;6940;313828;-78
2023/01/20 10:27:31;;;;;;;12.53;11.43;;;6.10;47.00;;;;;;20385;6940;117860;-79
2023/01/20 10:30:03;;;;;;;13.68;12.48;;;6.20;47.40;;;;;;20194;6938;281548;-77
2023/01/20 10:32:35;;;;;;;13.17;11.97;;;6.40;46.30;;;;;;20178;6939;281048;-77
2023/01/20 10:35:01;;;;;;;13.30;12.13;;;6.70;45.90;;;;;;20168;6940;316212;-76
2023/01/20 10:37:31;;;;;;;12.90;11.93;;;7.10;45.00;;;;;;20187;6940;316452;-79
2023/01/20 10:40:09;;;;;;;13.30;12.30;;;7.10;45.00;;;;;;20205;6940;284294;-74
2023/01/20 10:42:36;;;;;;;15.57;14.27;;;7.50;44.00;;;;;;20154;6940;316445;-71
2023/01/20 10:45:01;;;;;;;11.83;10.93;;;7.50;44.00;;;;;;20419;6940;120214;-74
2023/01/20 10:47:27;;;;;;;12.83;11.80;;;7.40;44.50;;;;;;20210;6940;284894;-73
2023/01/20 10:50:13;;;;;;;11.67;10.63;;;7.20;44.50;;;;;;20377;6940;118315;-73
2023/01/20 10:52:49;;;;;;;10.53;9.53;;;7.10;44.40;;;;;;20383;6940;119843;-72
2023/01/20 10:55:25;;;;;;;10.50;9.60;;;6.50;46.20;;;;;;20432;6940;117730;-73
2023/01/20 10:57:51;;;;;;;10.07;9.27;;;6.20;46.60;;;;;;20423;6940;118833;-71
2023/01/20 11:00:20;;;;;;;9.87;9.17;;;6.20;46.50;;;;;;20346;6940;117643;-73
2023/01/20 11:02:48;;;;;;;11.07;9.97;;;6.00;47.20;;;;;;20377;6940;121649;-73
2023/01/20 11:05:21;;;;;;;12.07;11.17;;;5.80;47.40;;;;;;20215;6940;311237;-72
2023/01/20 11:07:46;;;;;;;11.03;10.13;;;5.90;47.20;;;;;;20419;6940;121846;-74
2023/01/20 11:10:12;;;;;;;12.40;11.50;;;5.90;47.40;;;;;;20219;6940;297361;-74
2023/01/20 11:12:38;;;;;;;11.20;10.30;;;6.00;46.20;;;;;;20402;6940;117869;-76
2023/01/20 11:15:03;;;;;;;11.10;10.20;;;5.90;46.40;;;;;;20229;6940;281552;-76
2023/01/20 11:17:29;;;;;;;11.70;10.80;;;6.00;46.70;;;;;;20165;6940;332870;-74
2023/01/20 11:19:55;;;;;;;10.87;9.87;;;6.30;46.30;;;;;;20444;6940;117779;-75
2023/01/20 11:22:21;;;;;;;10.03;9.20;;;6.30;46.60;;;;;;20434;6940;120946;-75
2023/01/20 11:24:45;;;;;;;10.63;9.73;;;6.10;47.00;;;;;;20407;6940;122036;-75
2023/01/20 11:27:11;;;;;;;9.67;8.97;;;5.80;47.40;;;;;;20433;6940;119160;-73
2023/01/20 11:29:39;;;;;;;11.60;10.50;;;5.70;47.90;;;;;;20198;6940;280877;-74
2023/01/20 11:32:05;;;;;;;11.17;10.17;;;5.80;47.50;;;;;;20220;6940;284863;-77
2023/01/20 11:34:34;;;;;;;11.20;10.30;;;6.00;45.90;;;;;;20127;6940;311712;-79
2023/01/20 11:37:16;;;;;;;10.60;9.67;;;6.30;45.00;;;;;;20384;6940;118942;-75
2023/01/20 11:39:59;;;;;;;10.40;9.37;;;6.30;45.80;;;;;;20398;6938;118447;-75
2023/01/20 11:42:24;;;;;;;9.90;9.00;;;5.80;46.80;;;;;;20432;6939;117563;-74
2023/01/20 11:44:49;;;;;;;11.10;10.30;;;5.80;46.80;;;;;;20155;6939;310415;-75
2023/01/20 11:47:25;;;;;;;10.20;9.30;;;5.80;45.70;;;;;;20428;6940;117850;-75
2023/01/20 11:50:07;;;;;;;10.67;9.87;;;5.90;45.60;;;;;;20220;6940;340561;-76
2023/01/20 11:52:41;;;;;;;9.60;8.90;;;5.90;45.60;;;;;;20387;6940;122324;-75
2023/01/20 11:55:05;;;;;;;11.38;10.30;;;5.90;46.00;;;;;;20213;6940;340513;-76
2023/01/20 11:57:32;;;;;;;11.13;10.23;;;6.10;45.40;;;;;;20215;6940;311542;-75
2023/01/20 11:59:57;;;;;;;10.20;9.37;;;6.10;45.40;;;;;;20430;6940;118774;-75
2023/01/20 12:02:23;;;;;;;10.53;9.80;;;6.10;46.00;;;;;;20224;6940;281945;-74
2023/01/20 12:05:05;;;;;;;11.68;9.10;;;6.20;45.70;;;;;;20431;6932;119750;-75
2023/01/20 12:07:32;;;;;;;10.70;9.90;;;6.10;46.10;;;;;;20207;6938;301112;-75
2023/01/20 12:10:03;;;;;;;10.33;9.43;;;6.10;45.70;;;;;;20420;6938;118155;-74
2023/01/20 12:12:35;;;;;;;10.30;9.53;;;6.20;46.50;;;;;;20228;6938;304836;-75
2023/01/20 12:15:01;;;;;;;10.77;9.97;;;6.20;45.80;;;;;;20233;6938;284984;-74
2023/01/20 12:17:49;;;;;;;11.15;10.10;;;6.50;45.80;;;;;;20229;6938;315586;-75
2023/01/20 12:20:18;;;;;;;9.73;8.83;;;6.70;44.90;;;;;;19770;6938;122241;-75
2023/01/20 12:22:54;;;;;;;10.87;10.00;;;6.70;45.70;;;;;;20212;6938;344502;-76
2023/01/20 12:25:23;;;;;;;8.97;8.27;;;6.60;46.50;;;;;;20412;6938;119469;-74
2023/01/20 12:27:48;;;;;;;8.40;7.80;;;6.60;45.80;;;;;;20430;6938;118114;-75
2023/01/20 12:30:14;;;;;;;9.70;8.90;;;6.40;46.60;;;;;;20216;6938;311162;-76
2023/01/20 12:32:39;;;;;;;9.97;9.17;;;6.50;45.50;;;;;;20164;6938;311757;-75
2023/01/20 12:35:05;;;;;;;8.15;7.60;;;6.70;45.20;;;;;;20435;6938;120911;-75
2023/01/20 12:37:32;;;;;;;8.70;8.10;;;6.70;45.40;;;;;;20410;6938;119725;-75
2023/01/20 12:40:08;;;;;;;9.70;8.97;;;6.30;45.40;;;;;;20061;6938;295101;-75
2023/01/20 12:43:00;;;;;;;9.67;8.87;;;6.30;44.50;;;;;;20188;6938;297003;-77
2023/01/20 12:45:35;;;;;;;8.60;7.83;;;6.40;43.90;;;;;;20418;6938;117498;-76